Time;durP1;ratioP1;P1;durP2;ratioP2;P2;SDS_P1;SDS_P2;PMS_P1;PMS_P2;Temp;Humidity;BMP_temperature;BMP_pressure;BME280_temperature;BME280_humidity;BME280_pressure;Samples;Min_cycle;Max_cycle;Signal;HPM_P1;HPM_P2
2023/09/18 00:00:13;;;;;;;7.22;4.63;;;21.80;99.90;;;;;;2069960;28;20034;-73
2023/09/18 00:01:14;;;;;;;6.88;4.88;;;21.80;99.90;;;;;;2078280;28;20017;-73
2023/09/18 00:02:14;;;;;;;6.85;4.97;;;21.90;99.90;;;;;;2077965;28;20025;-73
2023/09/18 00:03:20;;;;;;;5.82;4.80;;;21.90;99.90;;;;;;2078437;28;20526;-73
2023/09/18 00:04:21;;;;;;;5.35;4.78;;;21.90;99.90;;;;;;2077188;28;20037;-73
2023/09/18 00:05:21;;;;;;;6.88;4.68;;;21.90;99.90;;;;;;2077270;28;20499;-73
2023/09/18 00:06:23;;;;;;;11.88;5.05;;;21.90;99.90;;;;;;2077240;28;20026;-73
2023/09/18 00:07:24;;;;;;;11.98;5.63;;;21.90;99.90;;;;;;2077774;28;20057;-73
2023/09/18 00:08:24;;;;;;;9.40;5.03;;;21.90;99.90;;;;;;2078061;28;20657;-73
2023/09/18 00:09:25;;;;;;;5.90;4.63;;;21.90;99.90;;;;;;2077606;28;20022;-73
2023/09/18 00:10:30;;;;;;;10.65;5.20;;;21.90;99.90;;;;;;2076620;28;20488;-73
2023/09/18 00:11:30;;;;;;;7.75;4.80;;;21.90;99.90;;;;;;2079623;28;20481;-73
2023/09/18 00:12:31;;;;;;;9.30;5.32;;;21.90;99.90;;;;;;2078846;28;20370;-73
2023/09/18 00:13:31;;;;;;;6.75;4.97;;;21.90;99.90;;;;;;2069035;28;20113;-73
2023/09/18 00:14:32;;;;;;;7.20;4.57;;;21.90;99.90;;;;;;2068945;28;20084;-73
2023/09/18 00:15:33;;;;;;;7.90;5.32;;;21.90;99.90;;;;;;2077566;28;20480;-73
2023/09/18 00:16:35;;;;;;;7.10;4.68;;;21.90;99.90;;;;;;2078295;28;20423;-73
2023/09/18 00:17:36;;;;;;;9.70;4.50;;;21.90;99.90;;;;;;2078418;28;20042;-73
2023/09/18 00:18:37;;;;;;;6.90;4.80;;;21.90;99.90;;;;;;2077624;28;20361;-73
2023/09/18 00:19:37;;;;;;;9.27;4.38;;;22.00;99.90;;;;;;2078080;28;20136;-73
2023/09/18 00:20:38;;;;;;;8.90;4.97;;;21.90;99.90;;;;;;2078633;28;20014;-73
2023/09/18 00:21:38;;;;;;;7.10;4.63;;;22.00;99.90;;;;;;2070356;28;20022;-73
2023/09/18 00:22:39;;;;;;;7.22;5.13;;;22.00;99.90;;;;;;2061362;28;20033;-73
2023/09/18 00:23:40;;;;;;;10.30;4.80;;;22.00;99.90;;;;;;2067829;28;20483;-73
2023/09/18 00:24:41;;;;;;;10.07;4.93;;;22.00;99.90;;;;;;2078150;28;20018;-73
2023/09/18 00:25:42;;;;;;;7.30;5.15;;;22.00;99.90;;;;;;2077140;28;20022;-73
2023/09/18 00:26:42;;;;;;;5.70;4.80;;;22.00;99.90;;;;;;2078800;28;20028;-73
2023/09/18 00:27:43;;;;;;;10.23;4.93;;;22.00;99.90;;;;;;2077276;28;20115;-73
2023/09/18 00:28:44;;;;;;;7.22;4.50;;;22.00;99.90;;;;;;2077785;28;20445;-73
2023/09/18 00:29:44;;;;;;;5.78;4.57;;;22.00;99.90;;;;;;2074411;28;20032;-73
2023/09/18 00:30:50;;;;;;;7.82;4.78;;;22.00;99.90;;;;;;2072367;28;20049;-73
2023/09/18 00:31:50;;;;;;;6.10;5.10;;;22.00;99.90;;;;;;2076114;28;20026;-73
2023/09/18 00:32:51;;;;;;;8.70;5.18;;;22.00;99.90;;;;;;2077200;28;20531;-73
2023/09/18 00:33:52;;;;;;;11.18;5.05;;;22.00;99.90;;;;;;2078569;28;20032;-73
2023/09/18 00:34:52;;;;;;;6.47;4.78;;;22.00;99.90;;;;;;2077615;28;20048;-73
2023/09/18 00:35:54;;;;;;;6.35;4.72;;;22.00;99.90;;;;;;2076849;28;20076;-74
2023/09/18 00:36:54;;;;;;;8.38;4.75;;;22.00;99.90;;;;;;2079613;28;20040;-73
2023/09/18 00:37:56;;;;;;;5.72;4.88;;;22.00;99.90;;;;;;2077614;28;20368;-73
2023/09/18 00:38:56;;;;;;;6.68;4.75;;;22.00;99.90;;;;;;2076222;28;20164;-73
2023/09/18 00:39:57;;;;;;;9.18;5.15;;;22.00;99.90;;;;;;2068676;28;20116;-73
2023/09/18 00:40:57;;;;;;;8.95;5.15;;;22.00;99.90;;;;;;2069318;28;20022;-73
2023/09/18 00:41:58;;;;;;;9.48;5.32;;;22.00;99.90;;;;;;2077031;28;20140;-73
2023/09/18 00:42:58;;;;;;;9.40;5.25;;;22.00;99.90;;;;;;2070122;28;20124;-73
2023/09/18 00:43:59;;;;;;;9.63;5.82;;;22.00;99.90;;;;;;2071539;28;20101;-73
2023/09/18 00:44:59;;;;;;;5.57;4.75;;;22.00;99.90;;;;;;2076415;28;20022;-73
2023/09/18 00:46:00;;;;;;;9.57;5.10;;;22.00;99.90;;;;;;2078214;28;20025;-74
2023/09/18 00:47:01;;;;;;;7.65;4.88;;;22.00;99.90;;;;;;2077906;28;20570;-73
2023/09/18 00:48:02;;;;;;;8.95;5.55;;;22.00;99.90;;;;;;2077514;28;20101;-73
2023/09/18 00:49:02;;;;;;;8.73;4.90;;;22.00;99.90;;;;;;2078019;28;20030;-73
2023/09/18 00:50:07;;;;;;;5.43;4.80;;;22.00;99.90;;;;;;2077612;28;20067;-73
2023/09/18 00:51:08;;;;;;;6.53;4.57;;;22.00;99.90;;;;;;2076427;28;20382;-73
2023/09/18 00:52:10;;;;;;;7.85;4.82;;;22.00;99.90;;;;;;2077806;28;20041;-73
2023/09/18 00:53:16;;;;;;;6.80;4.82;;;22.00;99.90;;;;;;2077688;28;20052;-73
2023/09/18 00:54:19;;;;;;;6.35;4.22;;;22.00;99.90;;;;;;2077939;28;20029;-73
2023/09/18 00:55:19;;;;;;;7.72;4.32;;;22.00;99.90;;;;;;2076502;28;20030;-73
2023/09/18 00:56:20;;;;;;;5.85;4.53;;;22.00;99.90;;;;;;2078495;28;20062;-73
2023/09/18 00:57:21;;;;;;;8.35;4.90;;;22.00;99.90;;;;;;2078224;28;20109;-73
2023/09/18 00:58:22;;;;;;;6.68;4.75;;;22.00;99.90;;;;;;2077593;28;20034;-73
2023/09/18 00:59:22;;;;;;;9.40;5.13;;;22.00;99.90;;;;;;2078734;28;20033;-73
2023/09/18 01:00:23;;;;;;;8.05;4.55;;;22.00;99.90;;;;;;2078941;28;20030;-73
2023/09/18 01:01:24;;;;;;;9.25;5.25;;;22.00;99.90;;;;;;2076846;28;20079;-73
2023/09/18 01:02:26;;;;;;;6.75;5.38;;;22.00;99.90;;;;;;2077404;28;20076;-73
2023/09/18 01:03:27;;;;;;;5.40;4.47;;;22.00;99.90;;;;;;2078249;28;20017;-73
2023/09/18 01:04:29;;;;;;;5.50;4.85;;;22.00;99.90;;;;;;2079520;28;20528;-73
2023/09/18 01:05:34;;;;;;;5.78;4.80;;;22.00;99.90;;;;;;2078255;28;20030;-73
2023/09/18 01:06:35;;;;;;;8.20;5.07;;;22.00;99.90;;;;;;2069383;28;20080;-73
2023/09/18 01:07:36;;;;;;;8.18;5.00;;;22.00;99.90;;;;;;2069465;28;20754;-73
2023/09/18 01:08:36;;;;;;;7.20;5.30;;;22.00;99.90;;;;;;2078248;28;20439;-73
2023/09/18 01:09:37;;;;;;;7.38;4.72;;;22.00;99.90;;;;;;2068462;28;20025;-73
2023/09/18 01:11:02;;;;;;;8.07;5.00;;;22.00;99.90;;;;;;2070322;28;20034;-73
2023/09/18 01:12:25;;;;;;;9.90;4.97;;;22.00;99.90;;;;;;2077010;28;20026;-74
2023/09/18 01:13:34;;;;;;;8.77;4.78;;;22.00;99.90;;;;;;2076334;28;20044;-73
2023/09/18 01:14:53;;;;;;;5.45;4.80;;;22.00;99.90;;;;;;2077882;28;20034;-73
2023/09/18 01:16:07;;;;;;;7.32;4.57;;;21.90;99.90;;;;;;2069653;28;20029;-73
2023/09/18 01:17:10;;;;;;;7.80;4.82;;;21.90;99.90;;;;;;2071360;28;20030;-73
2023/09/18 01:18:11;;;;;;;7.25;4.50;;;21.90;99.90;;;;;;2069074;28;20068;-73
2023/09/18 01:19:12;;;;;;;7.10;4.72;;;21.90;99.90;;;;;;2069864;28;20030;-73
2023/09/18 01:20:12;;;;;;;7.63;4.95;;;21.90;99.90;;;;;;2070255;28;20070;-73
2023/09/18 01:21:13;;;;;;;4.80;4.22;;;21.90;99.90;;;;;;2069584;28;20064;-73
2023/09/18 01:22:18;;;;;;;6.45;4.50;;;21.90;99.90;;;;;;2068842;28;20054;-73
2023/09/18 01:23:19;;;;;;;7.38;4.70;;;22.00;99.90;;;;;;2069665;28;20029;-73
2023/09/18 01:24:20;;;;;;;6.55;4.75;;;22.00;99.90;;;;;;2077398;28;20061;-73
2023/09/18 01:25:20;;;;;;;8.20;4.97;;;22.00;99.90;;;;;;2077327;28;20029;-73
2023/09/18 01:26:21;;;;;;;6.32;4.38;;;22.00;99.90;;;;;;2078228;28;20041;-73
2023/09/18 01:27:21;;;;;;;10.85;4.97;;;22.00;99.90;;;;;;2077702;28;20040;-73
2023/09/18 01:28:22;;;;;;;8.27;4.82;;;22.00;99.90;;;;;;2069230;28;20034;-73
2023/09/18 01:29:22;;;;;;;6.43;4.15;;;22.00;99.90;;;;;;2070439;28;20026;-73
2023/09/18 01:30:24;;;;;;;6.20;4.72;;;22.00;99.90;;;;;;2077031;28;20387;-73
2023/09/18 01:31:26;;;;;;;5.38;4.88;;;22.00;99.90;;;;;;2078242;28;20021;-73
2023/09/18 01:32:31;;;;;;;10.20;5.05;;;22.00;99.90;;;;;;2076994;28;20026;-73
2023/09/18 01:33:33;;;;;;;9.70;5.13;;;22.00;99.90;;;;;;2076308;28;20025;-73
2023/09/18 01:34:41;;;;;;;7.20;4.60;;;22.00;99.90;;;;;;2077901;28;20029;-74
2023/09/18 01:35:42;;;;;;;9.80;4.80;;;22.00;99.90;;;;;;2077413;28;20030;-73
2023/09/18 01:36:44;;;;;;;5.60;4.63;;;22.00;99.90;;;;;;2076018;28;20025;-73
2023/09/18 01:37:45;;;;;;;11.02;4.75;;;22.00;99.90;;;;;;2077004;28;20121;-73
2023/09/18 01:38:46;;;;;;;6.32;4.65;;;22.00;99.90;;;;;;2077477;28;20026;-73
2023/09/18 01:39:49;;;;;;;7.50;4.60;;;22.00;99.90;;;;;;2077570;28;20057;-73
2023/09/18 01:40:53;;;;;;;5.75;4.38;;;22.00;99.90;;;;;;2078392;28;20025;-73
2023/09/18 01:41:54;;;;;;;6.07;4.13;;;22.00;99.90;;;;;;2077557;28;20025;-73
2023/09/18 01:42:54;;;;;;;5.50;4.18;;;22.00;99.90;;;;;;2077531;28;20068;-73
2023/09/18 01:43:55;;;;;;;8.68;4.63;;;22.00;99.90;;;;;;2077613;28;20432;-73
2023/09/18 01:44:55;;;;;;;6.45;4.47;;;22.00;99.90;;;;;;2076780;28;20079;-73
2023/09/18 01:45:56;;;;;;;6.50;4.60;;;22.00;99.90;;;;;;2076484;28;20037;-73
2023/09/18 01:47:02;;;;;;;7.90;5.18;;;22.00;99.90;;;;;;2076607;28;20032;-73
2023/09/18 01:48:05;;;;;;;8.88;5.18;;;22.00;99.90;;;;;;2076652;28;20080;-73
2023/09/18 01:49:06;;;;;;;5.55;4.15;;;22.00;99.90;;;;;;2077859;28;20105;-73
2023/09/18 01:50:07;;;;;;;8.05;4.60;;;22.00;99.90;;;;;;2077509;28;20029;-73
2023/09/18 01:51:07;;;;;;;6.82;4.50;;;22.00;99.90;;;;;;2076868;28;20037;-73
2023/09/18 01:52:09;;;;;;;5.38;4.65;;;22.00;99.90;;;;;;2076540;28;20033;-73
2023/09/18 01:53:09;;;;;;;6.22;4.60;;;22.00;99.90;;;;;;2075297;28;20083;-73
2023/09/18 01:54:10;;;;;;;8.27;4.50;;;22.00;99.90;;;;;;2075608;28;20029;-73
2023/09/18 01:55:11;;;;;;;7.22;4.78;;;22.00;99.90;;;;;;2076517;28;20030;-73
2023/09/18 01:56:11;;;;;;;5.43;4.28;;;22.00;99.90;;;;;;2077138;28;20033;-73
2023/09/18 01:57:12;;;;;;;6.03;4.85;;;22.00;99.90;;;;;;2076028;28;20443;-74
2023/09/18 01:58:14;;;;;;;9.85;5.53;;;22.00;99.90;;;;;;2076816;28;20151;-73
2023/09/18 01:59:14;;;;;;;5.75;4.50;;;22.00;99.90;;;;;;2075826;28;20044;-73
2023/09/18 02:00:15;;;;;;;7.40;4.72;;;22.00;99.90;;;;;;2077958;28;20033;-73
2023/09/18 02:01:16;;;;;;;7.40;4.80;;;22.00;99.90;;;;;;2076082;28;20346;-73
2023/09/18 02:02:17;;;;;;;7.35;4.40;;;22.00;99.90;;;;;;2077952;28;20548;-73
2023/09/18 02:03:20;;;;;;;11.40;5.05;;;22.00;99.90;;;;;;2076285;28;21912;-73
2023/09/18 02:04:22;;;;;;;6.30;4.60;;;22.00;99.90;;;;;;2077282;28;20018;-73
2023/09/18 02:05:23;;;;;;;6.88;4.55;;;22.00;99.90;;;;;;2077684;28;20018;-73
2023/09/18 02:06:24;;;;;;;6.20;4.53;;;22.00;99.90;;;;;;2075888;28;20380;-73
2023/09/18 02:07:24;;;;;;;7.07;4.60;;;22.00;99.90;;;;;;2078494;28;20022;-73
2023/09/18 02:08:25;;;;;;;7.80;5.30;;;22.00;99.90;;;;;;2077047;28;20084;-73
2023/09/18 02:09:25;;;;;;;6.47;4.55;;;22.00;99.90;;;;;;2077025;28;20036;-73
2023/09/18 02:10:27;;;;;;;8.30;4.70;;;22.00;99.90;;;;;;2078473;28;20407;-73
2023/09/18 02:11:28;;;;;;;7.43;4.63;;;22.00;99.90;;;;;;2076028;28;20030;-73
2023/09/18 02:12:28;;;;;;;8.00;4.85;;;22.00;99.90;;;;;;2078727;28;20108;-73
2023/09/18 02:13:29;;;;;;;8.30;4.47;;;22.00;99.90;;;;;;2067863;28;20729;-73
2023/09/18 02:14:30;;;;;;;6.28;4.50;;;22.00;99.90;;;;;;2068656;28;20096;-73
2023/09/18 02:15:31;;;;;;;9.60;5.20;;;22.00;99.90;;;;;;2076528;28;20116;-73
2023/09/18 02:16:46;;;;;;;10.85;5.00;;;22.00;99.90;;;;;;2076700;28;20030;-73
2023/09/18 02:17:46;;;;;;;6.80;4.47;;;22.00;99.90;;;;;;2076561;28;20029;-73
2023/09/18 02:18:47;;;;;;;7.47;4.50;;;22.00;99.90;;;;;;2078389;28;20028;-73
2023/09/18 02:19:48;;;;;;;6.97;4.35;;;22.00;99.90;;;;;;2078128;28;20024;-73
2023/09/18 02:20:49;;;;;;;6.63;4.05;;;22.00;99.90;;;;;;2074541;28;20519;-73
2023/09/18 02:21:49;;;;;;;6.93;4.00;;;22.00;99.90;;;;;;2077048;28;20021;-73
2023/09/18 02:22:50;;;;;;;7.70;4.20;;;22.00;99.90;;;;;;2077553;28;20044;-73
2023/09/18 02:23:51;;;;;;;8.68;4.45;;;22.00;99.90;;;;;;2077511;28;20034;-73
2023/09/18 02:24:52;;;;;;;6.10;3.95;;;22.00;99.90;;;;;;2076758;28;20026;-73
2023/09/18 02:25:57;;;;;;;8.05;4.38;;;22.00;99.90;;;;;;2074987;28;20041;-73
2023/09/18 02:26:57;;;;;;;4.93;4.38;;;22.10;99.90;;;;;;2076195;28;20024;-73
2023/09/18 02:27:58;;;;;;;8.38;4.28;;;22.00;99.90;;;;;;2077690;28;20044;-73
2023/09/18 02:29:00;;;;;;;8.07;4.30;;;22.00;99.90;;;;;;2076880;28;20396;-73
2023/09/18 02:30:01;;;;;;;5.20;4.25;;;22.00;99.90;;;;;;2075442;28;20113;-73
2023/09/18 02:31:01;;;;;;;6.78;4.07;;;22.10;99.90;;;;;;2075218;28;20025;-73
2023/09/18 02:32:02;;;;;;;5.32;4.20;;;22.10;99.90;;;;;;2075773;28;20033;-73
2023/09/18 02:33:03;;;;;;;7.68;4.05;;;22.10;99.90;;;;;;2076792;28;20040;-73
2023/09/18 02:34:04;;;;;;;6.55;4.35;;;22.10;99.90;;;;;;2075823;28;20125;-73
2023/09/18 02:35:07;;;;;;;5.20;4.03;;;22.10;99.90;;;;;;2077042;28;20040;-73
2023/09/18 02:36:07;;;;;;;6.22;4.32;;;22.10;99.90;;;;;;2077367;28;20096;-73
2023/09/18 02:37:08;;;;;;;6.07;4.05;;;22.10;99.90;;;;;;2077401;28;20036;-73
2023/09/18 02:38:09;;;;;;;6.90;4.30;;;22.10;99.90;;;;;;2076625;28;20030;-73
2023/09/18 02:39:09;;;;;;;6.22;4.53;;;22.10;99.90;;;;;;2076974;28;20079;-73
2023/09/18 02:40:10;;;;;;;7.55;4.18;;;22.10;99.90;;;;;;2077514;28;20029;-73
2023/09/18 02:41:11;;;;;;;8.30;4.15;;;22.10;99.90;;;;;;2077137;28;20489;-73
2023/09/18 02:42:11;;;;;;;7.75;4.40;;;22.10;99.90;;;;;;2075925;28;20467;-73
2023/09/18 02:43:12;;;;;;;7.88;4.18;;;22.10;99.90;;;;;;2078196;28;20051;-73
2023/09/18 02:44:12;;;;;;;6.22;4.13;;;22.10;99.90;;;;;;2077037;28;20032;-73
2023/09/18 02:45:13;;;;;;;7.70;4.38;;;22.10;99.90;;;;;;2075504;28;20108;-73
2023/09/18 02:46:13;;;;;;;6.97;4.22;;;22.10;99.90;;;;;;2077951;28;20096;-73
2023/09/18 02:47:14;;;;;;;7.32;4.22;;;22.10;99.90;;;;;;2075991;28;20044;-73
2023/09/18 02:48:15;;;;;;;7.88;4.53;;;22.10;99.90;;;;;;2068729;28;20058;-73
2023/09/18 02:49:15;;;;;;;6.10;4.50;;;22.10;99.90;;;;;;2068370;28;20507;-73
2023/09/18 02:50:16;;;;;;;5.32;4.07;;;22.10;99.90;;;;;;2077440;28;20028;-73
2023/09/18 02:51:16;;;;;;;4.57;4.15;;;22.10;99.90;;;;;;2077002;28;20233;-73
2023/09/18 02:52:17;;;;;;;8.55;4.47;;;22.00;99.90;;;;;;2074771;28;20037;-73
2023/09/18 02:53:22;;;;;;;5.82;4.15;;;22.10;99.90;;;;;;2078241;28;20195;-73
2023/09/18 02:54:22;;;;;;;7.47;4.43;;;22.00;99.90;;;;;;2075883;28;20036;-73
2023/09/18 02:55:23;;;;;;;5.05;4.15;;;22.10;99.90;;;;;;2075673;28;20034;-73
2023/09/18 02:56:23;;;;;;;6.25;4.65;;;22.00;99.90;;;;;;2074902;28;20040;-73
2023/09/18 02:57:24;;;;;;;7.35;4.85;;;22.00;99.90;;;;;;2076116;28;20696;-73
2023/09/18 02:58:26;;;;;;;5.07;4.57;;;22.00;99.90;;;;;;2076378;28;20037;-73
2023/09/18 02:59:26;;;;;;;4.93;3.83;;;22.00;99.90;;;;;;2076170;28;20029;-73
2023/09/18 03:00:27;;;;;;;8.23;4.65;;;22.00;99.90;;;;;;2073724;28;20033;-73
2023/09/18 03:01:27;;;;;;;7.13;4.90;;;22.00;99.90;;;;;;2075843;28;20037;-73
2023/09/18 03:02:28;;;;;;;7.95;4.78;;;22.00;99.90;;;;;;2068629;28;20022;-73
2023/09/18 03:03:28;;;;;;;6.97;4.35;;;22.00;99.90;;;;;;2067522;28;20031;-73
2023/09/18 03:04:31;;;;;;;5.95;4.65;;;22.00;99.90;;;;;;2077186;28;20037;-73
2023/09/18 03:05:31;;;;;;;8.30;4.70;;;22.00;99.90;;;;;;2078224;28;20033;-73
2023/09/18 03:06:32;;;;;;;6.45;3.97;;;22.00;99.90;;;;;;2074241;28;20112;-73
2023/09/18 03:07:32;;;;;;;7.75;4.03;;;22.00;99.90;;;;;;2076224;28;20030;-73
2023/09/18 03:08:34;;;;;;;5.80;4.20;;;22.00;99.90;;;;;;2076948;28;20100;-73
2023/09/18 03:09:36;;;;;;;6.68;4.60;;;22.00;99.90;;;;;;2078387;28;20028;-73
2023/09/18 03:10:39;;;;;;;6.80;4.50;;;22.00;99.90;;;;;;2074590;28;20022;-73
2023/09/18 03:11:39;;;;;;;6.40;4.35;;;22.00;99.90;;;;;;2075521;28;20066;-73
2023/09/18 03:12:40;;;;;;;4.60;4.20;;;22.00;99.90;;;;;;2077825;28;20078;-73
2023/09/18 03:13:46;;;;;;;8.93;4.40;;;22.00;99.90;;;;;;2077138;28;20079;-73
2023/09/18 03:14:46;;;;;;;5.43;3.90;;;22.00;99.90;;;;;;2077021;28;20108;-73
2023/09/18 03:15:47;;;;;;;5.88;4.15;;;22.00;99.90;;;;;;2076338;28;20040;-73
2023/09/18 03:16:48;;;;;;;8.40;3.80;;;22.00;99.90;;;;;;2076876;28;20034;-73
2023/09/18 03:17:50;;;;;;;4.38;3.50;;;22.00;99.90;;;;;;2076782;28;20056;-73
2023/09/18 03:18:51;;;;;;;5.88;3.65;;;22.10;99.90;;;;;;2067190;28;20052;-74
2023/09/18 03:19:51;;;;;;;7.85;3.90;;;22.10;99.90;;;;;;2066151;28;20018;-73
2023/09/18 03:20:52;;;;;;;8.48;3.90;;;22.10;99.90;;;;;;2076879;28;20045;-74
2023/09/18 03:21:52;;;;;;;6.00;4.03;;;22.10;99.90;;;;;;2076369;28;20107;-73
2023/09/18 03:23:00;;;;;;;6.07;3.80;;;22.10;99.90;;;;;;2076498;28;20071;-73
2023/09/18 03:24:02;;;;;;;7.07;3.90;;;22.10;99.90;;;;;;2076711;28;20113;-73
2023/09/18 03:25:03;;;;;;;8.32;3.85;;;22.10;99.90;;;;;;2067369;28;20065;-73
2023/09/18 03:26:04;;;;;;;9.30;4.53;;;22.10;99.90;;;;;;2068175;28;20076;-73
2023/09/18 03:27:04;;;;;;;4.05;3.42;;;22.20;99.90;;;;;;2077310;28;20041;-73
2023/09/18 03:28:05;;;;;;;6.88;3.60;;;22.20;99.90;;;;;;2075688;28;20030;-73
2023/09/18 03:29:06;;;;;;;6.85;3.65;;;22.20;99.90;;;;;;2078070;28;20087;-73
2023/09/18 03:30:07;;;;;;;5.90;4.10;;;22.20;99.90;;;;;;2076463;28;20029;-73
2023/09/18 03:31:08;;;;;;;4.18;3.40;;;22.20;99.90;;;;;;2075672;28;20108;-73
2023/09/18 03:32:12;;;;;;;11.40;3.78;;;22.20;99.90;;;;;;2068776;28;20045;-73
2023/09/18 03:33:12;;;;;;;7.85;3.72;;;22.20;99.90;;;;;;2070106;28;20030;-73
2023/09/18 03:34:13;;;;;;;5.88;3.70;;;22.30;99.90;;;;;;2075868;28;20121;-73
2023/09/18 03:35:20;;;;;;;5.45;3.38;;;22.30;99.90;;;;;;2075827;28;20053;-73
2023/09/18 03:36:23;;;;;;;7.65;3.75;;;22.30;99.90;;;;;;2076234;28;21533;-73
2023/09/18 03:37:24;;;;;;;7.80;3.40;;;22.30;99.90;;;;;;2075565;28;20029;-73
2023/09/18 03:38:25;;;;;;;7.88;3.58;;;22.30;99.90;;;;;;2077300;28;20030;-73
2023/09/18 03:39:25;;;;;;;8.75;3.78;;;22.30;99.90;;;;;;2078491;28;20025;-73
2023/09/18 03:40:26;;;;;;;6.90;3.83;;;22.30;99.90;;;;;;2077792;28;20075;-73
2023/09/18 03:41:26;;;;;;;5.22;3.08;;;22.30;99.90;;;;;;2077801;28;20077;-73
2023/09/18 03:42:27;;;;;;;5.63;3.50;;;22.30;99.90;;;;;;2076106;28;20018;-73
2023/09/18 03:43:27;;;;;;;7.60;3.38;;;22.30;99.90;;;;;;2077277;28;20483;-74
2023/09/18 03:44:28;;;;;;;5.68;3.78;;;22.30;99.90;;;;;;2076696;28;20028;-73
2023/09/18 03:45:28;;;;;;;7.35;3.17;;;22.40;99.90;;;;;;2075285;28;20373;-74
2023/09/18 03:46:29;;;;;;;8.90;3.47;;;22.40;99.90;;;;;;2075922;28;20025;-74
2023/09/18 03:47:30;;;;;;;7.38;3.60;;;22.40;99.90;;;;;;2075205;28;20022;-73
2023/09/18 03:48:36;;;;;;;17.17;3.80;;;22.40;99.90;;;;;;2067683;28;20041;-73
2023/09/18 03:49:36;;;;;;;5.20;3.20;;;22.40;99.90;;;;;;2070118;28;20117;-73
2023/09/18 03:50:38;;;;;;;7.63;3.20;;;22.40;99.90;;;;;;2078461;28;20484;-73
2023/09/18 03:51:39;;;;;;;5.88;3.45;;;22.40;99.90;;;;;;2067751;28;20045;-74
2023/09/18 03:52:39;;;;;;;6.78;3.50;;;22.40;99.90;;;;;;2062085;28;20065;-74
2023/09/18 03:53:40;;;;;;;4.25;3.13;;;22.40;99.90;;;;;;2070185;28;20034;-73
2023/09/18 03:54:41;;;;;;;5.40;3.42;;;22.50;99.90;;;;;;2076831;28;20061;-73
2023/09/18 03:55:41;;;;;;;7.20;3.08;;;22.50;99.90;;;;;;2076245;28;20030;-73
2023/09/18 03:56:42;;;;;;;8.77;3.10;;;22.50;99.90;;;;;;2075634;28;20072;-73
2023/09/18 03:57:43;;;;;;;4.70;3.35;;;22.50;99.90;;;;;;2066994;28;20053;-73
2023/09/18 03:58:46;;;;;;;6.22;3.40;;;22.50;99.90;;;;;;2065706;28;20046;-73
2023/09/18 03:59:47;;;;;;;5.47;3.65;;;22.50;99.90;;;;;;2075234;28;20025;-73
2023/09/18 04:00:49;;;;;;;5.53;3.40;;;22.50;99.90;;;;;;2076773;28;20109;-73
2023/09/18 04:01:49;;;;;;;6.97;3.70;;;22.50;99.90;;;;;;2076106;28;20040;-73
2023/09/18 04:02:50;;;;;;;5.72;2.92;;;22.60;99.90;;;;;;2077152;28;20017;-73
2023/09/18 04:03:50;;;;;;;8.55;3.28;;;22.50;99.90;;;;;;2075460;28;20080;-73
2023/09/18 04:04:52;;;;;;;6.15;3.25;;;22.50;99.90;;;;;;2075407;28;20103;-73
2023/09/18 04:05:53;;;;;;;6.07;3.38;;;22.50;99.90;;;;;;2076223;28;20101;-73
2023/09/18 04:06:53;;;;;;;6.50;3.25;;;22.50;99.90;;;;;;2075019;28;20028;-73
2023/09/18 04:07:54;;;;;;;5.85;3.42;;;22.60;99.90;;;;;;2077639;28;20427;-73
2023/09/18 04:08:55;;;;;;;8.48;3.35;;;22.60;99.90;;;;;;2077073;28;20026;-73
2023/09/18 04:09:55;;;;;;;5.28;3.30;;;22.60;99.90;;;;;;2076093;28;20026;-73
2023/09/18 04:10:57;;;;;;;6.30;3.17;;;22.60;99.90;;;;;;2077656;28;20068;-73
2023/09/18 04:11:58;;;;;;;8.60;3.70;;;22.60;99.90;;;;;;2076583;28;20021;-73
2023/09/18 04:12:58;;;;;;;9.80;3.22;;;22.60;99.90;;;;;;2077126;28;20025;-73
2023/09/18 04:14:00;;;;;;;7.40;3.63;;;22.60;99.90;;;;;;2070075;28;20033;-73
2023/09/18 04:15:02;;;;;;;7.47;3.70;;;22.60;99.90;;;;;;2069928;28;20499;-73
2023/09/18 04:16:03;;;;;;;6.22;3.30;;;22.60;99.90;;;;;;2069884;28;20040;-73
2023/09/18 04:17:04;;;;;;;6.50;3.50;;;22.60;99.90;;;;;;2069169;28;20029;-73
2023/09/18 04:18:05;;;;;;;7.25;3.75;;;22.60;99.90;;;;;;2069277;28;20040;-73
2023/09/18 04:19:06;;;;;;;7.35;3.30;;;22.60;99.90;;;;;;2077845;28;20074;-73
2023/09/18 04:20:07;;;;;;;8.55;3.30;;;22.60;99.90;;;;;;2076376;28;20025;-73
2023/09/18 04:21:09;;;;;;;7.75;3.70;;;22.60;99.90;;;;;;2070020;28;20128;-73
2023/09/18 04:22:10;;;;;;;8.68;4.25;;;22.60;99.90;;;;;;2073237;28;20435;-73
2023/09/18 04:23:19;;;;;;;5.72;3.47;;;22.60;99.90;;;;;;2078005;28;21678;-74
2023/09/18 04:24:21;;;;;;;8.10;3.60;;;22.60;99.90;;;;;;2076613;28;20357;-73
2023/09/18 04:25:22;;;;;;;6.10;3.15;;;22.60;99.90;;;;;;2078286;28;20034;-73
2023/09/18 04:26:30;;;;;;;6.25;3.20;;;22.60;99.90;;;;;;2076937;28;20060;-73
2023/09/18 04:27:31;;;;;;;5.38;3.58;;;22.60;99.90;;;;;;2077428;28;20084;-73
2023/09/18 04:28:31;;;;;;;6.88;3.15;;;22.60;99.90;;;;;;2077797;28;20029;-73
2023/09/18 04:29:32;;;;;;;7.07;4.05;;;22.60;99.90;;;;;;2076643;28;20100;-73
2023/09/18 04:30:33;;;;;;;7.18;3.35;;;22.60;99.90;;;;;;2078336;28;20041;-73
2023/09/18 04:31:34;;;;;;;11.30;3.40;;;22.60;99.90;;;;;;2078928;28;20053;-73
2023/09/18 04:32:38;;;;;;;5.78;3.50;;;22.60;99.90;;;;;;2078774;28;20036;-73
2023/09/18 04:33:38;;;;;;;6.60;4.03;;;22.60;99.90;;;;;;2077608;28;20040;-73
2023/09/18 04:34:39;;;;;;;4.35;3.15;;;22.60;99.90;;;;;;2078263;28;20057;-73
2023/09/18 04:35:40;;;;;;;9.77;3.65;;;22.60;99.90;;;;;;2069845;28;20527;-73
2023/09/18 04:36:41;;;;;;;8.02;3.40;;;22.60;99.90;;;;;;2069973;28;20056;-73
2023/09/18 04:37:42;;;;;;;6.43;3.40;;;22.60;99.90;;;;;;2077327;28;20112;-73
2023/09/18 04:38:42;;;;;;;7.68;3.35;;;22.60;99.90;;;;;;2076503;28;20034;-73
2023/09/18 04:39:43;;;;;;;6.13;3.45;;;22.60;99.90;;;;;;2079136;28;20022;-74
2023/09/18 04:40:43;;;;;;;4.35;3.00;;;22.60;99.90;;;;;;2077975;28;20126;-73
2023/09/18 04:41:44;;;;;;;6.13;3.53;;;22.60;99.90;;;;;;2076289;28;20021;-73
2023/09/18 04:42:44;;;;;;;4.47;3.22;;;22.60;99.90;;;;;;2079108;28;20017;-74
2023/09/18 04:43:45;;;;;;;6.30;3.85;;;22.60;99.90;;;;;;2077109;28;20030;-74
2023/09/18 04:44:45;;;;;;;9.45;3.30;;;22.60;99.90;;;;;;2078739;28;20477;-74
2023/09/18 04:45:46;;;;;;;10.05;4.10;;;22.60;99.90;;;;;;2078618;28;20112;-73
2023/09/18 04:46:47;;;;;;;17.13;3.40;;;22.60;99.90;;;;;;2077065;28;20033;-74
2023/09/18 04:47:47;;;;;;;8.00;3.83;;;22.60;99.90;;;;;;2076535;28;20034;-73
2023/09/18 04:48:48;;;;;;;8.77;3.65;;;22.60;99.90;;;;;;2077493;28;20087;-73
2023/09/18 04:49:49;;;;;;;11.30;3.60;;;22.60;99.90;;;;;;2077436;28;20025;-73
2023/09/18 04:50:49;;;;;;;10.30;3.88;;;22.60;99.90;;;;;;2071491;28;20551;-73
2023/09/18 04:51:50;;;;;;;7.47;3.38;;;22.50;99.90;;;;;;2069686;28;20032;-73
2023/09/18 04:52:52;;;;;;;11.32;3.85;;;22.60;99.90;;;;;;2077588;28;20104;-73
2023/09/18 04:53:52;;;;;;;7.60;3.58;;;22.60;99.90;;;;;;2078054;28;20101;-73
2023/09/18 04:54:54;;;;;;;8.43;3.90;;;22.60;99.90;;;;;;2077901;28;20072;-73
2023/09/18 04:55:55;;;;;;;9.00;4.05;;;22.60;99.90;;;;;;2069107;28;20093;-73
2023/09/18 04:56:55;;;;;;;10.45;3.72;;;22.60;99.90;;;;;;2069000;28;20018;-73
2023/09/18 04:57:58;;;;;;;8.60;3.53;;;22.60;99.90;;;;;;2078575;28;20080;-73
2023/09/18 04:58:58;;;;;;;8.05;3.83;;;22.60;99.90;;;;;;2079875;28;20020;-73
2023/09/18 04:59:59;;;;;;;8.38;3.45;;;22.60;99.90;;;;;;2077278;28;20021;-73
2023/09/18 05:01:00;;;;;;;10.15;4.00;;;22.60;99.90;;;;;;2077125;28;20029;-74
2023/09/18 05:02:00;;;;;;;9.75;3.85;;;22.60;99.90;;;;;;2077956;28;20422;-73
2023/09/18 05:03:02;;;;;;;7.63;3.53;;;22.60;99.90;;;;;;2076964;28;20026;-73
2023/09/18 05:04:03;;;;;;;6.95;3.30;;;22.60;99.90;;;;;;2077647;28;20017;-73
2023/09/18 05:05:04;;;;;;;10.15;3.88;;;22.60;99.90;;;;;;2076335;28;20036;-73
2023/09/18 05:06:05;;;;;;;10.15;4.00;;;22.60;99.90;;;;;;2077728;28;20033;-73
2023/09/18 05:07:05;;;;;;;9.55;3.72;;;22.60;99.90;;;;;;2076612;28;20555;-73
2023/09/18 05:08:07;;;;;;;7.88;4.00;;;22.60;99.90;;;;;;2076376;28;20045;-73
2023/09/18 05:09:08;;;;;;;7.28;3.42;;;22.60;99.90;;;;;;2079460;28;20116;-74
2023/09/18 05:10:09;;;;;;;9.25;3.83;;;22.60;99.90;;;;;;2078317;28;20033;-73
2023/09/18 05:11:10;;;;;;;11.07;4.05;;;22.60;99.90;;;;;;2077046;28;20040;-73
2023/09/18 05:12:13;;;;;;;6.47;3.28;;;22.60;99.90;;;;;;2077826;28;20116;-73
2023/09/18 05:13:14;;;;;;;8.52;3.72;;;22.60;99.90;;;;;;2078324;28;20084;-74
2023/09/18 05:14:16;;;;;;;9.63;3.90;;;22.60;99.90;;;;;;2078907;28;20111;-73
2023/09/18 05:15:16;;;;;;;8.88;3.33;;;22.60;99.90;;;;;;2077714;28;20484;-73
2023/09/18 05:16:17;;;;;;;9.57;3.65;;;22.50;99.90;;;;;;2078607;28;20388;-73
2023/09/18 05:17:18;;;;;;;13.80;4.75;;;22.60;99.90;;;;;;2079122;28;20392;-73
2023/09/18 05:18:18;;;;;;;11.75;3.63;;;22.60;99.90;;;;;;2077413;28;20051;-73
2023/09/18 05:19:19;;;;;;;6.25;3.58;;;22.60;99.90;;;;;;2076585;28;20550;-73